sensor_id;sensor_type;location;lat;lon;timestamp;pressure;altitude;pressure_sealevel;temperature;humidity
48874;BME280;35220;46.204;5.220;2022-07-06T00:04:47;99209.66;;;20.97;46.58
48874;BME280;35220;46.204;5.220;2022-07-06T00:09:48;99208.81;;;20.88;46.72
48874;BME280;35220;46.204;5.220;2022-07-06T00:14:48;99212.19;;;20.80;46.79
48874;BME280;35220;46.204;5.220;2022-07-06T00:19:48;99223.06;;;20.78;46.85
48874;BME280;35220;46.204;5.220;2022-07-06T00:24:49;99224.59;;;20.70;46.99
48874;BME280;35220;46.204;5.220;2022-07-06T00:29:49;99232.16;;;20.63;46.99
48874;BME280;35220;46.204;5.220;2022-07-06T00:34:49;99232.94;;;20.50;47.11
48874;BME280;35220;46.204;5.220;2022-07-06T00:39:50;99242.19;;;20.39;47.72
48874;BME280;35220;46.204;5.220;2022-07-06T00:44:50;99242.88;;;20.30;47.45
48874;BME280;35220;46.204;5.220;2022-07-06T00:49:51;99244.66;;;20.21;47.87
48874;BME280;35220;46.204;5.220;2022-07-06T00:55:10;99238.13;;;20.05;48.63
48874;BME280;35220;46.204;5.220;2022-07-06T01:00:13;99228.03;;;19.93;48.49
48874;BME280;35220;46.204;5.220;2022-07-06T01:05:15;99218.66;;;19.87;48.31
48874;BME280;35220;46.204;5.220;2022-07-06T01:10:17;99209.44;;;19.84;48.58
48874;BME280;35220;46.204;5.220;2022-07-06T01:15:21;99205.81;;;19.80;48.55
48874;BME280;35220;46.204;5.220;2022-07-06T01:20:23;99211.06;;;19.66;49.09
48874;BME280;35220;46.204;5.220;2022-07-06T01:25:24;99217.84;;;19.59;49.41
48874;BME280;35220;46.204;5.220;2022-07-06T01:30:25;99217.72;;;19.50;49.67
48874;BME280;35220;46.204;5.220;2022-07-06T01:35:26;99215.47;;;19.43;49.62
48874;BME280;35220;46.204;5.220;2022-07-06T01:40:29;99204.66;;;19.26;50.68
48874;BME280;35220;46.204;5.220;2022-07-06T01:45:31;99203.28;;;19.14;50.47
48874;BME280;35220;46.204;5.220;2022-07-06T01:50:32;99216.16;;;19.02;50.51
48874;BME280;35220;46.204;5.220;2022-07-06T01:55:33;99217.03;;;18.97;50.55
48874;BME280;35220;46.204;5.220;2022-07-06T02:00:33;99215.53;;;18.91;50.46
48874;BME280;35220;46.204;5.220;2022-07-06T02:05:34;99215.41;;;18.83;50.98
48874;BME280;35220;46.204;5.220;2022-07-06T02:10:34;99215.41;;;18.83;50.81
48874;BME280;35220;46.204;5.220;2022-07-06T02:15:34;99214.41;;;18.78;50.65
48874;BME280;35220;46.204;5.220;2022-07-06T02:20:35;99212.13;;;18.72;50.90
48874;BME280;35220;46.204;5.220;2022-07-06T02:25:35;99209.56;;;18.67;50.59
48874;BME280;35220;46.204;5.220;2022-07-06T02:30:36;99207.84;;;18.57;51.55
48874;BME280;35220;46.204;5.220;2022-07-06T02:35:37;99213.13;;;18.57;51.15
48874;BME280;35220;46.204;5.220;2022-07-06T02:40:42;99218.34;;;18.43;51.98
48874;BME280;35220;46.204;5.220;2022-07-06T02:45:42;99221.09;;;18.33;51.79
48874;BME280;35220;46.204;5.220;2022-07-06T02:50:43;99224.19;;;18.21;51.79
48874;BME280;35220;46.204;5.220;2022-07-06T02:55:43;99232.00;;;18.07;52.38
48874;BME280;35220;46.204;5.220;2022-07-06T03:00:44;99234.25;;;17.95;52.72
48874;BME280;35220;46.204;5.220;2022-07-06T03:05:44;99230.06;;;17.89;52.71
48874;BME280;35220;46.204;5.220;2022-07-06T03:10:47;99233.78;;;17.88;52.24
48874;BME280;35220;46.204;5.220;2022-07-06T03:15:47;99230.47;;;17.77;52.71
48874;BME280;35220;46.204;5.220;2022-07-06T03:20:47;99232.88;;;17.73;52.95
48874;BME280;35220;46.204;5.220;2022-07-06T03:25:48;99226.34;;;17.65;53.26
48874;BME280;35220;46.204;5.220;2022-07-06T03:30:48;99243.47;;;17.68;52.94
48874;BME280;35220;46.204;5.220;2022-07-06T03:35:49;99252.75;;;17.60;53.26
48874;BME280;35220;46.204;5.220;2022-07-06T03:40:49;99249.16;;;17.51;53.44
48874;BME280;35220;46.204;5.220;2022-07-06T03:45:50;99249.16;;;17.51;53.07
48874;BME280;35220;46.204;5.220;2022-07-06T03:50:50;99258.44;;;17.43;53.26
48874;BME280;35220;46.204;5.220;2022-07-06T03:55:51;99255.34;;;17.36;53.89
48874;BME280;35220;46.204;5.220;2022-07-06T04:01:10;99265.16;;;17.31;53.65
48874;BME280;35220;46.204;5.220;2022-07-06T04:06:10;99261.97;;;17.28;53.74
48874;BME280;35220;46.204;5.220;2022-07-06T04:11:10;99260.66;;;17.31;53.38
48874;BME280;35220;46.204;5.220;2022-07-06T04:16:11;99259.41;;;17.23;53.81
48874;BME280;35220;46.204;5.220;2022-07-06T04:21:11;99249.38;;;17.25;53.53
48874;BME280;35220;46.204;5.220;2022-07-06T04:26:12;99250.94;;;17.26;53.19
48874;BME280;35220;46.204;5.220;2022-07-06T04:31:12;99246.19;;;17.28;53.34
48874;BME280;35220;46.204;5.220;2022-07-06T04:36:15;99246.44;;;17.32;53.26
48874;BME280;35220;46.204;5.220;2022-07-06T04:41:15;99256.81;;;17.47;53.30
48874;BME280;35220;46.204;5.220;2022-07-06T04:46:16;99252.56;;;17.52;53.31
48874;BME280;35220;46.204;5.220;2022-07-06T04:51:16;99255.97;;;17.57;53.07
48874;BME280;35220;46.204;5.220;2022-07-06T04:56:17;99255.06;;;17.67;52.57
48874;BME280;35220;46.204;5.220;2022-07-06T05:01:17;99259.72;;;17.75;52.65
48874;BME280;35220;46.204;5.220;2022-07-06T05:06:18;99253.31;;;17.86;52.51
48874;BME280;35220;46.204;5.220;2022-07-06T05:11:20;99251.81;;;17.75;52.84
48874;BME280;35220;46.204;5.220;2022-07-06T05:16:21;99248.47;;;17.70;52.95
48874;BME280;35220;46.204;5.220;2022-07-06T05:21:22;99239.28;;;17.62;53.41
48874;BME280;35220;46.204;5.220;2022-07-06T05:26:22;99244.00;;;17.65;52.91
48874;BME280;35220;46.204;5.220;2022-07-06T05:31:23;99246.38;;;17.66;53.31
48874;BME280;35220;46.204;5.220;2022-07-06T05:36:24;99250.91;;;17.61;53.45
48874;BME280;35220;46.204;5.220;2022-07-06T05:41:24;99253.63;;;17.51;53.77
48874;BME280;35220;46.204;5.220;2022-07-06T05:46:25;99262.41;;;17.41;54.02
48874;BME280;35220;46.204;5.220;2022-07-06T05:51:25;99263.25;;;17.36;54.63
48874;BME280;35220;46.204;5.220;2022-07-06T05:56:26;99266.53;;;17.52;53.79
48874;BME280;35220;46.204;5.220;2022-07-06T06:01:26;99261.53;;;17.51;53.94
48874;BME280;35220;46.204;5.220;2022-07-06T06:06:27;99270.81;;;17.72;53.54
48874;BME280;35220;46.204;5.220;2022-07-06T06:11:27;99269.84;;;17.92;53.31
48874;BME280;35220;46.204;5.220;2022-07-06T06:16:28;99275.13;;;17.92;53.77
48874;BME280;35220;46.204;5.220;2022-07-06T06:21:28;99288.34;;;17.87;54.28
48874;BME280;35220;46.204;5.220;2022-07-06T06:26:29;99285.84;;;18.01;53.97
48874;BME280;35220;46.204;5.220;2022-07-06T06:31:29;99289.72;;;18.09;53.99
48874;BME280;35220;46.204;5.220;2022-07-06T06:36:30;99295.78;;;18.09;53.90
48874;BME280;35220;46.204;5.220;2022-07-06T06:41:30;99318.09;;;18.17;53.57
48874;BME280;35220;46.204;5.220;2022-07-06T06:46:30;99310.13;;;18.22;53.49
48874;BME280;35220;46.204;5.220;2022-07-06T06:51:32;99312.16;;;18.30;53.00
48874;BME280;35220;46.204;5.220;2022-07-06T06:56:33;99317.22;;;18.46;53.27
48874;BME280;35220;46.204;5.220;2022-07-06T07:01:33;99316.00;;;18.62;52.70
48874;BME280;35220;46.204;5.220;2022-07-06T07:06:34;99320.41;;;18.67;52.69
48874;BME280;35220;46.204;5.220;2022-07-06T07:11:34;99319.91;;;18.65;52.39
48874;BME280;35220;46.204;5.220;2022-07-06T07:16:35;99320.13;;;18.68;52.52
48874;BME280;35220;46.204;5.220;2022-07-06T07:21:35;99324.44;;;18.83;52.26
48874;BME280;35220;46.204;5.220;2022-07-06T07:26:36;99328.81;;;18.93;52.14
48874;BME280;35220;46.204;5.220;2022-07-06T07:31:37;99329.22;;;19.00;52.18
48874;BME280;35220;46.204;5.220;2022-07-06T07:36:37;99321.72;;;19.07;52.00
48874;BME280;35220;46.204;5.220;2022-07-06T07:41:38;99314.34;;;19.23;51.89
48874;BME280;35220;46.204;5.220;2022-07-06T07:46:38;99321.63;;;19.31;51.76
48874;BME280;35220;46.204;5.220;2022-07-06T07:51:38;99329.59;;;19.45;51.49
48874;BME280;35220;46.204;5.220;2022-07-06T07:56:39;99332.66;;;19.52;50.95
48874;BME280;35220;46.204;5.220;2022-07-06T08:01:40;99338.47;;;19.68;50.95
48874;BME280;35220;46.204;5.220;2022-07-06T08:06:41;99334.59;;;19.80;50.73
48874;BME280;35220;46.204;5.220;2022-07-06T08:11:41;99337.00;;;19.95;50.36
48874;BME280;35220;46.204;5.220;2022-07-06T08:16:42;99336.59;;;20.16;50.16
48874;BME280;35220;46.204;5.220;2022-07-06T08:21:43;99335.03;;;20.28;50.17
48874;BME280;35220;46.204;5.220;2022-07-06T08:26:43;99331.13;;;20.26;50.20
48874;BME280;35220;46.204;5.220;2022-07-06T08:31:44;99336.41;;;20.40;49.72
48874;BME280;35220;46.204;5.220;2022-07-06T08:36:45;99333.91;;;20.57;50.21
48874;BME280;35220;46.204;5.220;2022-07-06T08:41:47;99347.34;;;20.75;50.09
48874;BME280;35220;46.204;5.220;2022-07-06T08:46:49;99354.91;;;20.81;50.44
48874;BME280;35220;46.204;5.220;2022-07-06T08:51:52;99347.50;;;20.92;49.86
48874;BME280;35220;46.204;5.220;2022-07-06T08:56:52;99344.94;;;21.01;49.74
48874;BME280;35220;46.204;5.220;2022-07-06T09:01:53;99352.66;;;21.11;49.46
48874;BME280;35220;46.204;5.220;2022-07-06T09:06:54;99350.56;;;21.22;49.14
48874;BME280;35220;46.204;5.220;2022-07-06T09:11:54;99353.88;;;21.27;48.82
48874;BME280;35220;46.204;5.220;2022-07-06T09:17:05;99352.50;;;21.53;49.10
48874;BME280;35220;46.204;5.220;2022-07-06T09:22:06;99344.59;;;21.61;48.58
48874;BME280;35220;46.204;5.220;2022-07-06T09:27:15;99354.78;;;21.68;47.39
48874;BME280;35220;46.204;5.220;2022-07-06T09:32:20;99364.97;;;21.75;46.83
48874;BME280;35220;46.204;5.220;2022-07-06T09:37:22;99351.81;;;21.92;46.67
48874;BME280;35220;46.204;5.220;2022-07-06T09:42:25;99354.13;;;21.94;46.81
48874;BME280;35220;46.204;5.220;2022-07-06T09:47:27;99376.50;;;22.01;46.38
48874;BME280;35220;46.204;5.220;2022-07-06T09:52:27;99371.81;;;22.07;46.21
48874;BME280;35220;46.204;5.220;2022-07-06T09:57:28;99373.41;;;22.17;45.85
48874;BME280;35220;46.204;5.220;2022-07-06T10:02:29;99376.56;;;22.19;45.40
48874;BME280;35220;46.204;5.220;2022-07-06T10:07:29;99380.22;;;22.32;45.39
48874;BME280;35220;46.204;5.220;2022-07-06T10:12:30;99366.00;;;22.36;45.76
48874;BME280;35220;46.204;5.220;2022-07-06T10:17:31;99382.63;;;22.42;45.41
48874;BME280;35220;46.204;5.220;2022-07-06T10:22:34;99381.81;;;22.42;44.93
48874;BME280;35220;46.204;5.220;2022-07-06T10:27:35;99376.81;;;22.49;45.41
48874;BME280;35220;46.204;5.220;2022-07-06T10:32:38;99357.97;;;22.59;45.57
48874;BME280;35220;46.204;5.220;2022-07-06T10:37:39;99357.06;;;22.72;44.86
48874;BME280;35220;46.204;5.220;2022-07-06T10:42:47;99362.06;;;22.91;44.31
48874;BME280;35220;46.204;5.220;2022-07-06T10:53:12;99351.59;;;22.95;42.72
48874;BME280;35220;46.204;5.220;2022-07-06T10:58:14;99355.50;;;22.97;43.32
48874;BME280;35220;46.204;5.220;2022-07-06T11:08:47;99354.44;;;23.07;42.36
48874;BME280;35220;46.204;5.220;2022-07-06T11:13:55;99347.38;;;23.20;42.69
48874;BME280;35220;46.204;5.220;2022-07-06T11:19:10;99332.69;;;23.23;42.58
48874;BME280;35220;46.204;5.220;2022-07-06T11:24:22;99346.59;;;23.37;42.22
48874;BME280;35220;46.204;5.220;2022-07-06T11:29:24;99337.19;;;23.40;41.94
48874;BME280;35220;46.204;5.220;2022-07-06T11:34:27;99327.34;;;23.49;42.10
48874;BME280;35220;46.204;5.220;2022-07-06T11:39:35;99322.78;;;23.49;41.53
48874;BME280;35220;46.204;5.220;2022-07-06T11:44:36;99312.63;;;23.51;41.34
48874;BME280;35220;46.204;5.220;2022-07-06T11:49:39;99313.66;;;23.68;39.31
48874;BME280;35220;46.204;5.220;2022-07-06T11:54:41;99303.66;;;23.73;40.07
48874;BME280;35220;46.204;5.220;2022-07-06T11:59:41;99295.28;;;23.92;40.35
48874;BME280;35220;46.204;5.220;2022-07-06T12:04:44;99306.34;;;24.03;39.69
48874;BME280;35220;46.204;5.220;2022-07-06T12:09:46;99289.81;;;24.19;39.93
48874;BME280;35220;46.204;5.220;2022-07-06T12:14:47;99298.63;;;24.40;40.04
48874;BME280;35220;46.204;5.220;2022-07-06T12:19:52;99282.44;;;24.45;39.33
48874;BME280;35220;46.204;5.220;2022-07-06T12:24:54;99281.34;;;24.46;38.86
48874;BME280;35220;46.204;5.220;2022-07-06T12:30:10;99273.94;;;24.52;38.54
48874;BME280;35220;46.204;5.220;2022-07-06T12:35:11;99288.13;;;24.65;38.24
48874;BME280;35220;46.204;5.220;2022-07-06T12:40:13;99277.53;;;24.77;37.12
48874;BME280;35220;46.204;5.220;2022-07-06T12:45:14;99264.22;;;24.77;36.41
48874;BME280;35220;46.204;5.220;2022-07-06T12:50:14;99268.47;;;24.91;37.07
48874;BME280;35220;46.204;5.220;2022-07-06T12:55:15;99260.50;;;25.03;35.93
48874;BME280;35220;46.204;5.220;2022-07-06T13:00:16;99258.13;;;25.22;36.03
48874;BME280;35220;46.204;5.220;2022-07-06T13:05:17;99248.41;;;25.27;36.28
48874;BME280;35220;46.204;5.220;2022-07-06T13:10:18;99240.97;;;25.45;35.29
48874;BME280;35220;46.204;5.220;2022-07-06T13:15:19;99242.41;;;25.67;34.01
48874;BME280;35220;46.204;5.220;2022-07-06T13:20:20;99238.09;;;25.74;34.43
48874;BME280;35220;46.204;5.220;2022-07-06T13:25:21;99253.97;;;25.83;34.79
48874;BME280;35220;46.204;5.220;2022-07-06T13:30:21;99236.44;;;25.94;34.01
48874;BME280;35220;46.204;5.220;2022-07-06T13:35:22;99246.09;;;25.99;33.73
48874;BME280;35220;46.204;5.220;2022-07-06T13:40:22;99230.06;;;26.11;33.15
48874;BME280;35220;46.204;5.220;2022-07-06T13:45:22;99228.91;;;26.37;32.52
48874;BME280;35220;46.204;5.220;2022-07-06T13:50:23;99244.50;;;26.35;33.05
48874;BME280;35220;46.204;5.220;2022-07-06T13:55:25;99228.88;;;26.49;33.22
48874;BME280;35220;46.204;5.220;2022-07-06T14:00:26;99211.47;;;26.55;33.13
48874;BME280;35220;46.204;5.220;2022-07-06T14:05:28;99207.88;;;26.92;32.52
48874;BME280;35220;46.204;5.220;2022-07-06T14:10:28;99194.81;;;27.35;31.96
48874;BME280;35220;46.204;5.220;2022-07-06T14:15:29;99199.38;;;27.34;32.15
48874;BME280;35220;46.204;5.220;2022-07-06T14:20:29;99201.53;;;27.28;29.77
48874;BME280;35220;46.204;5.220;2022-07-06T14:25:30;99207.22;;;27.27;30.28
48874;BME280;35220;46.204;5.220;2022-07-06T14:30:30;99197.63;;;27.26;30.19
48874;BME280;35220;46.204;5.220;2022-07-06T14:35:31;99205.69;;;27.42;30.14
48874;BME280;35220;46.204;5.220;2022-07-06T14:40:31;99203.66;;;27.71;29.94
48874;BME280;35220;46.204;5.220;2022-07-06T14:45:32;99194.84;;;27.70;30.47
48874;BME280;35220;46.204;5.220;2022-07-06T14:50:33;99215.28;;;27.78;30.49
48874;BME280;35220;46.204;5.220;2022-07-06T14:55:35;99198.19;;;27.83;29.97
48874;BME280;35220;46.204;5.220;2022-07-06T15:00:35;99191.25;;;27.82;29.25
48874;BME280;35220;46.204;5.220;2022-07-06T15:05:36;99192.41;;;27.81;29.48
48874;BME280;35220;46.204;5.220;2022-07-06T15:10:36;99193.31;;;28.04;29.86
48874;BME280;35220;46.204;5.220;2022-07-06T15:15:37;99199.16;;;28.30;29.05
48874;BME280;35220;46.204;5.220;2022-07-06T15:20:38;99181.63;;;28.32;28.82
48874;BME280;35220;46.204;5.220;2022-07-06T15:25:38;99188.31;;;28.22;29.07
48874;BME280;35220;46.204;5.220;2022-07-06T15:30:39;99174.63;;;28.47;29.32
48874;BME280;35220;46.204;5.220;2022-07-06T15:35:39;99173.38;;;28.60;28.79
48874;BME280;35220;46.204;5.220;2022-07-06T15:40:40;99168.88;;;28.88;28.85
48874;BME280;35220;46.204;5.220;2022-07-06T15:45:44;99165.47;;;29.37;28.58
48874;BME280;35220;46.204;5.220;2022-07-06T15:50:45;99163.63;;;29.98;27.84
48874;BME280;35220;46.204;5.220;2022-07-06T15:55:45;99153.03;;;30.87;27.15
48874;BME280;35220;46.204;5.220;2022-07-06T16:00:46;99145.97;;;31.76;26.76
48874;BME280;35220;46.204;5.220;2022-07-06T16:05:47;99152.81;;;32.65;25.70
48874;BME280;35220;46.204;5.220;2022-07-06T16:10:47;99143.59;;;33.16;24.69
48874;BME280;35220;46.204;5.220;2022-07-06T16:15:48;99147.41;;;33.47;23.37
48874;BME280;35220;46.204;5.220;2022-07-06T16:20:49;99134.16;;;33.85;23.21
48874;BME280;35220;46.204;5.220;2022-07-06T16:25:50;99127.06;;;34.24;22.89
48874;BME280;35220;46.204;5.220;2022-07-06T16:30:50;99122.25;;;34.50;22.44
48874;BME280;35220;46.204;5.220;2022-07-06T16:35:51;99107.69;;;34.85;22.01
48874;BME280;35220;46.204;5.220;2022-07-06T16:40:51;99112.53;;;35.04;21.94
48874;BME280;35220;46.204;5.220;2022-07-06T16:45:52;99104.03;;;35.40;21.47
48874;BME280;35220;46.204;5.220;2022-07-06T16:50:52;99104.88;;;35.72;21.44
48874;BME280;35220;46.204;5.220;2022-07-06T16:55:53;99107.03;;;35.12;21.63
48874;BME280;35220;46.204;5.220;2022-07-06T17:00:53;99103.63;;;35.80;20.88
48874;BME280;35220;46.204;5.220;2022-07-06T17:05:54;99112.50;;;35.81;20.36
48874;BME280;35220;46.204;5.220;2022-07-06T17:10:54;99124.91;;;36.09;20.25
48874;BME280;35220;46.204;5.220;2022-07-06T17:15:55;99128.84;;;36.04;20.52
48874;BME280;35220;46.204;5.220;2022-07-06T17:20:56;99128.25;;;35.93;20.76
48874;BME280;35220;46.204;5.220;2022-07-06T17:25:56;99120.84;;;34.83;21.38
48874;BME280;35220;46.204;5.220;2022-07-06T17:30:58;99131.22;;;32.54;23.47
48874;BME280;35220;46.204;5.220;2022-07-06T17:35:59;99134.63;;;31.45;24.74
48874;BME280;35220;46.204;5.220;2022-07-06T17:41:00;99130.00;;;30.45;25.60
48874;BME280;35220;46.204;5.220;2022-07-06T17:46:00;99130.72;;;30.42;25.99
48874;BME280;35220;46.204;5.220;2022-07-06T17:51:01;99135.78;;;30.47;25.95
48874;BME280;35220;46.204;5.220;2022-07-06T17:56:01;99137.06;;;30.64;26.02
48874;BME280;35220;46.204;5.220;2022-07-06T18:01:02;99133.13;;;30.51;26.23
48874;BME280;35220;46.204;5.220;2022-07-06T18:06:02;99131.78;;;31.86;24.91
48874;BME280;35220;46.204;5.220;2022-07-06T18:11:04;99143.94;;;32.53;24.54
48874;BME280;35220;46.204;5.220;2022-07-06T18:16:05;99133.16;;;33.11;23.93
48874;BME280;35220;46.204;5.220;2022-07-06T18:21:07;99138.53;;;32.46;24.26
48874;BME280;35220;46.204;5.220;2022-07-06T18:26:07;99141.53;;;32.12;24.52
48874;BME280;35220;46.204;5.220;2022-07-06T18:31:08;99135.09;;;31.54;24.80
48874;BME280;35220;46.204;5.220;2022-07-06T18:36:08;99141.78;;;31.23;25.09
48874;BME280;35220;46.204;5.220;2022-07-06T18:41:10;99149.22;;;30.47;25.83
48874;BME280;35220;46.204;5.220;2022-07-06T18:46:10;99147.97;;;30.07;26.28
48874;BME280;35220;46.204;5.220;2022-07-06T18:51:11;99153.53;;;29.91;26.60
48874;BME280;35220;46.204;5.220;2022-07-06T18:56:12;99162.03;;;29.40;27.24
48874;BME280;35220;46.204;5.220;2022-07-06T19:01:12;99163.19;;;28.93;28.34
48874;BME280;35220;46.204;5.220;2022-07-06T19:06:13;99171.53;;;28.65;28.75
48874;BME280;35220;46.204;5.220;2022-07-06T19:11:13;99183.03;;;28.26;29.42
48874;BME280;35220;46.204;5.220;2022-07-06T19:16:14;99192.47;;;27.84;30.18
48874;BME280;35220;46.204;5.220;2022-07-06T19:21:14;99185.53;;;27.48;30.50
48874;BME280;35220;46.204;5.220;2022-07-06T19:26:15;99186.31;;;26.85;31.60
48874;BME280;35220;46.204;5.220;2022-07-06T19:31:15;99181.72;;;26.29;32.54
48874;BME280;35220;46.204;5.220;2022-07-06T19:36:18;99189.59;;;25.72;33.65
48874;BME280;35220;46.204;5.220;2022-07-06T19:41:19;99208.13;;;25.19;34.32
48874;BME280;35220;46.204;5.220;2022-07-06T19:46:22;99209.34;;;24.76;35.20
48874;BME280;35220;46.204;5.220;2022-07-06T19:51:22;99237.56;;;24.35;34.91
48874;BME280;35220;46.204;5.220;2022-07-06T19:56:23;99231.81;;;24.03;35.09
48874;BME280;35220;46.204;5.220;2022-07-06T20:01:23;99239.28;;;23.80;34.80
48874;BME280;35220;46.204;5.220;2022-07-06T20:06:24;99251.28;;;23.57;34.60
48874;BME280;35220;46.204;5.220;2022-07-06T20:11:25;99260.28;;;23.34;34.82
48874;BME280;35220;46.204;5.220;2022-07-06T20:16:26;99257.97;;;23.15;35.01
48874;BME280;35220;46.204;5.220;2022-07-06T20:21:27;99256.56;;;23.01;34.95
48874;BME280;35220;46.204;5.220;2022-07-06T20:26:28;99260.63;;;22.89;34.65
48874;BME280;35220;46.204;5.220;2022-07-06T20:31:29;99266.56;;;22.77;34.93
48874;BME280;35220;46.204;5.220;2022-07-06T20:36:29;99276.56;;;22.63;35.00
48874;BME280;35220;46.204;5.220;2022-07-06T20:41:30;99279.69;;;22.56;35.38
48874;BME280;35220;46.204;5.220;2022-07-06T20:46:30;99286.38;;;22.36;35.83
48874;BME280;35220;46.204;5.220;2022-07-06T20:51:31;99283.56;;;22.33;35.92
48874;BME280;35220;46.204;5.220;2022-07-06T20:56:32;99282.72;;;22.15;36.34
48874;BME280;35220;46.204;5.220;2022-07-06T21:01:33;99280.50;;;21.99;36.96
48874;BME280;35220;46.204;5.220;2022-07-06T21:06:34;99287.47;;;21.87;37.13
48874;BME280;35220;46.204;5.220;2022-07-06T21:11:35;99294.91;;;21.76;37.57
48874;BME280;35220;46.204;5.220;2022-07-06T21:16:35;99292.03;;;21.63;37.38
48874;BME280;35220;46.204;5.220;2022-07-06T21:21:35;99303.81;;;21.49;37.82
48874;BME280;35220;46.204;5.220;2022-07-06T21:26:36;99296.69;;;21.35;38.39
48874;BME280;35220;46.204;5.220;2022-07-06T21:31:37;99288.72;;;21.26;38.49
48874;BME280;35220;46.204;5.220;2022-07-06T21:36:38;99289.25;;;21.15;38.27
48874;BME280;35220;46.204;5.220;2022-07-06T21:41:38;99288.94;;;20.94;38.77
48874;BME280;35220;46.204;5.220;2022-07-06T21:46:39;99296.16;;;20.79;38.84
48874;BME280;35220;46.204;5.220;2022-07-06T21:51:39;99296.78;;;20.62;39.58
48874;BME280;35220;46.204;5.220;2022-07-06T21:56:39;99302.88;;;20.49;40.03
48874;BME280;35220;46.204;5.220;2022-07-06T22:01:40;99295.59;;;20.41;40.23
48874;BME280;35220;46.204;5.220;2022-07-06T22:06:41;99301.91;;;20.31;40.57
48874;BME280;35220;46.204;5.220;2022-07-06T22:11:41;99306.13;;;20.18;40.60
48874;BME280;35220;46.204;5.220;2022-07-06T22:16:42;99302.28;;;20.10;40.66
48874;BME280;35220;46.204;5.220;2022-07-06T22:21:42;99295.44;;;19.96;41.29
48874;BME280;35220;46.204;5.220;2022-07-06T22:26:43;99302.50;;;19.86;41.87
48874;BME280;35220;46.204;5.220;2022-07-06T22:31:43;99303.75;;;19.75;42.43
48874;BME280;35220;46.204;5.220;2022-07-06T22:36:44;99294.13;;;19.65;42.35
48874;BME280;35220;46.204;5.220;2022-07-06T22:41:44;99303.19;;;19.59;42.33
48874;BME280;35220;46.204;5.220;2022-07-06T22:46:45;99300.81;;;19.44;43.37
48874;BME280;35220;46.204;5.220;2022-07-06T22:51:45;99290.53;;;19.42;43.25
48874;BME280;35220;46.204;5.220;2022-07-06T22:56:46;99303.06;;;19.36;43.04
48874;BME280;35220;46.204;5.220;2022-07-06T23:01:46;99306.34;;;19.28;43.77
48874;BME280;35220;46.204;5.220;2022-07-06T23:06:47;99300.94;;;19.19;44.06
48874;BME280;35220;46.204;5.220;2022-07-06T23:11:47;99291.53;;;19.13;44.30
48874;BME280;35220;46.204;5.220;2022-07-06T23:16:48;99299.03;;;19.06;44.17
48874;BME280;35220;46.204;5.220;2022-07-06T23:21:48;99296.53;;;18.96;44.71
48874;BME280;35220;46.204;5.220;2022-07-06T23:26:49;99296.13;;;18.89;44.90
48874;BME280;35220;46.204;5.220;2022-07-06T23:31:49;99281.25;;;18.74;45.43
48874;BME280;35220;46.204;5.220;2022-07-06T23:36:50;99288.44;;;18.68;45.89
48874;BME280;35220;46.204;5.220;2022-07-06T23:41:50;99281.81;;;18.52;46.25
48874;BME280;35220;46.204;5.220;2022-07-06T23:46:53;99282.00;;;18.36;46.46
48874;BME280;35220;46.204;5.220;2022-07-06T23:51:53;99283.91;;;18.31;46.90
48874;BME280;35220;46.204;5.220;2022-07-06T23:56:54;99282.69;;;18.23;47.28
